Time;durP1;ratioP1;P1;durP2;ratioP2;P2;SDS_P1;SDS_P2;PMS_P1;PMS_P2;Temp;Humidity;BMP_temperature;BMP_pressure;BME280_temperature;BME280_humidity;BME280_pressure;Samples;Min_cycle;Max_cycle;Signal;HPM_P1;HPM_P2
2021/03/26 00:00:55;;;;;;;3.92;1.77;;;22.20;62.80;;;;;;4144205;28;20348;-54
2021/03/26 00:02:57;;;;;;;5.10;1.80;;;22.30;62.70;;;;;;4139864;28;20049;-53
2021/03/26 00:04:59;;;;;;;4.20;2.15;;;22.30;62.80;;;;;;4144878;28;20022;-56
2021/03/26 00:07:01;;;;;;;4.28;1.92;;;22.30;62.40;;;;;;4147226;28;20913;-54
2021/03/26 00:09:08;;;;;;;4.40;1.80;;;22.40;63.10;;;;;;4146924;28;20061;-57
2021/03/26 00:11:10;;;;;;;4.20;1.70;;;22.40;63.10;;;;;;4148000;28;20419;-48
2021/03/26 00:13:13;;;;;;;4.80;1.83;;;22.50;63.20;;;;;;4146018;28;20043;-59
2021/03/26 00:15:15;;;;;;;5.00;1.92;;;22.60;63.30;;;;;;4147860;28;20044;-54
2021/03/26 00:17:17;;;;;;;4.43;1.70;;;22.50;63.30;;;;;;4146585;28;20117;-54
2021/03/26 00:19:19;;;;;;;4.43;2.00;;;22.60;63.30;;;;;;4146353;28;20033;-54
2021/03/26 00:21:23;;;;;;;3.75;1.80;;;22.70;63.40;;;;;;4143470;28;20091;-56
2021/03/26 00:23:26;;;;;;;3.42;1.60;;;22.70;63.40;;;;;;4146759;28;20460;-57
2021/03/26 00:25:28;;;;;;;2.20;1.50;;;22.70;63.50;;;;;;4146151;28;20029;-49
2021/03/26 00:27:30;;;;;;;2.83;1.92;;;22.80;63.60;;;;;;4142151;28;20045;-54
2021/03/26 00:29:32;;;;;;;8.38;1.80;;;22.80;63.60;;;;;;4146992;28;20116;-49
2021/03/26 00:31:35;;;;;;;9.25;1.90;;;22.80;63.60;;;;;;4146679;28;20033;-53
2021/03/26 00:33:37;;;;;;;4.28;1.63;;;22.80;63.60;;;;;;4146453;28;20044;-54
2021/03/26 00:35:40;;;;;;;2.42;1.42;;;22.90;63.90;;;;;;4144168;28;20514;-59
2021/03/26 00:37:42;;;;;;;4.10;1.70;;;22.90;63.80;;;;;;4147256;28;20037;-58
2021/03/26 00:39:44;;;;;;;3.50;1.67;;;22.90;63.90;;;;;;4143573;28;20046;-57
2021/03/26 00:41:47;;;;;;;3.40;1.75;;;22.90;64.00;;;;;;4148252;28;20450;-57
2021/03/26 00:43:49;;;;;;;5.53;1.60;;;23.00;64.10;;;;;;4149298;28;20030;-54
2021/03/26 00:45:51;;;;;;;3.38;1.75;;;23.00;64.30;;;;;;4146195;28;20033;-52
2021/03/26 00:47:53;;;;;;;2.50;1.40;;;23.00;64.30;;;;;;4145042;28;20042;-54
2021/03/26 00:49:55;;;;;;;4.93;1.85;;;23.00;64.20;;;;;;4143070;28;20265;-58
2021/03/26 00:51:57;;;;;;;4.05;1.52;;;23.00;64.20;;;;;;4145646;28;20046;-58
2021/03/26 00:54:00;;;;;;;5.05;1.70;;;23.10;64.00;;;;;;4143739;28;20531;-58
2021/03/26 00:56:03;;;;;;;4.70;1.60;;;23.10;63.70;;;;;;4145318;28;20092;-57
2021/03/26 00:58:04;;;;;;;;;;;23.10;63.40;;;;;;4147212;28;20437;-58
2021/03/26 01:00:10;;;;;;;2.20;1.60;;;23.10;63.20;;;;;;4144722;28;20436;-59
2021/03/26 01:02:13;;;;;;;6.72;2.10;;;23.10;63.20;;;;;;4143610;28;20452;-55
2021/03/26 01:04:15;;;;;;;4.63;1.60;;;23.10;63.50;;;;;;4138335;28;20569;-55
2021/03/26 01:06:18;;;;;;;5.93;1.67;;;23.10;63.30;;;;;;4143583;28;20453;-55
2021/03/26 01:08:21;;;;;;;4.53;1.90;;;23.10;63.30;;;;;;4148541;28;20743;-52
2021/03/26 01:10:27;;;;;;;3.65;1.63;;;23.20;63.20;;;;;;4140510;28;20402;-56
2021/03/26 01:12:29;;;;;;;6.53;1.63;;;23.20;62.60;;;;;;4148412;28;20172;-57
2021/03/26 01:14:31;;;;;;;7.00;1.80;;;23.20;62.30;;;;;;4145087;28;20128;-57
2021/03/26 01:16:33;;;;;;;4.15;1.65;;;23.20;62.10;;;;;;4146460;28;20044;-50
2021/03/26 01:18:40;;;;;;;4.78;1.63;;;23.30;62.00;;;;;;4143305;28;20285;-56
2021/03/26 01:20:42;;;;;;;5.10;1.60;;;23.20;61.90;;;;;;4141253;28;20109;-54
2021/03/26 01:22:44;;;;;;;4.53;1.65;;;23.30;61.80;;;;;;4143772;28;20125;-54
2021/03/26 01:24:46;;;;;;;4.45;1.70;;;23.30;61.80;;;;;;4141637;28;20025;-58
2021/03/26 01:26:48;;;;;;;6.78;1.70;;;23.30;61.80;;;;;;4147699;28;20503;-55
2021/03/26 01:28:51;;;;;;;3.85;2.03;;;23.30;62.00;;;;;;4150336;28;20561;-55
2021/03/26 01:30:54;;;;;;;2.35;1.45;;;23.30;62.10;;;;;;4147839;28;20560;-48
2021/03/26 01:32:56;;;;;;;4.63;1.50;;;23.20;62.10;;;;;;4151769;28;20499;-55
2021/03/26 01:34:58;;;;;;;2.40;1.40;;;23.20;61.90;;;;;;4147503;28;20092;-55
2021/03/26 01:37:00;;;;;;;3.53;1.88;;;23.30;61.80;;;;;;4151064;28;20033;-55
2021/03/26 01:39:04;;;;;;;3.10;1.88;;;23.30;61.90;;;;;;4145526;28;20045;-50
2021/03/26 01:41:27;;;;;;;4.88;1.77;;;23.30;61.90;;;;;;4150456;28;20049;-49
2021/03/26 01:43:33;;;;;;;7.15;2.22;;;23.30;61.80;;;;;;4147408;28;20057;-55
2021/03/26 01:45:35;;;;;;;5.68;1.85;;;23.40;61.80;;;;;;4145950;28;20057;-53
2021/03/26 01:47:38;;;;;;;4.57;1.83;;;23.40;61.60;;;;;;4150434;28;20041;-55
2021/03/26 01:49:40;;;;;;;4.60;2.08;;;23.40;61.60;;;;;;4146694;28;20085;-56
2021/03/26 01:51:46;;;;;;;6.68;2.20;;;23.40;62.10;;;;;;4148456;28;20088;-56
2021/03/26 01:53:48;;;;;;;4.25;2.08;;;23.40;61.60;;;;;;4146094;28;20080;-52
2021/03/26 01:55:53;;;;;;;3.88;1.67;;;23.40;61.20;;;;;;4151181;28;20033;-47
2021/03/26 01:57:55;;;;;;;4.70;1.80;;;23.40;61.30;;;;;;4142802;28;20045;-52
2021/03/26 01:59:59;;;;;;;4.30;1.57;;;23.40;61.20;;;;;;4142941;28;20110;-56
2021/03/26 02:02:08;;;;;;;9.23;2.55;;;23.40;61.20;;;;;;4143714;28;20045;-60
2021/03/26 02:04:21;;;;;;;4.97;2.38;;;23.50;61.60;;;;;;4145408;28;20042;-60
2021/03/26 02:06:29;;;;;;;5.03;1.98;;;23.50;61.90;;;;;;4145607;28;20094;-60
2021/03/26 02:08:36;;;;;;;4.18;1.70;;;23.50;62.00;;;;;;4147783;28;20026;-60
2021/03/26 02:10:39;;;;;;;8.90;2.10;;;23.50;62.10;;;;;;4151299;28;20022;-58
2021/03/26 02:12:43;;;;;;;3.38;2.00;;;23.50;62.20;;;;;;4145934;28;20043;-59
2021/03/26 02:14:50;;;;;;;4.25;1.75;;;23.50;62.10;;;;;;4148564;28;20440;-56
2021/03/26 02:16:53;;;;;;;7.90;1.95;;;23.60;61.60;;;;;;4146473;28;20091;-57
2021/03/26 02:18:55;;;;;;;3.30;1.65;;;23.60;61.90;;;;;;4148379;28;20076;-57
2021/03/26 02:21:05;;;;;;;4.03;1.67;;;23.60;61.80;;;;;;4144118;28;20033;-58
2021/03/26 02:23:19;;;;;;;4.22;1.80;;;23.60;62.00;;;;;;4150086;28;20037;-50
2021/03/26 02:25:24;;;;;;;4.45;1.98;;;23.60;63.20;;;;;;4142408;28;20030;-55
2021/03/26 02:27:38;;;;;;;5.32;1.67;;;23.60;63.60;;;;;;4150983;28;20117;-52
2021/03/26 02:29:40;;;;;;;4.20;1.45;;;23.70;63.80;;;;;;4145546;28;20098;-52
2021/03/26 02:31:42;;;;;;;2.72;1.48;;;23.70;63.40;;;;;;4148298;28;20034;-58
2021/03/26 02:33:45;;;;;;;4.22;1.95;;;23.70;63.30;;;;;;4147056;28;20043;-55
2021/03/26 02:36:11;;;;;;;5.43;2.20;;;23.80;63.50;;;;;;4149343;28;20072;-47
2021/03/26 02:38:34;;;;;;;5.63;2.40;;;23.80;63.80;;;;;;4146228;28;20068;-53
2021/03/26 02:40:59;;;;;;;3.25;1.55;;;23.80;63.90;;;;;;4145895;28;20094;-49
2021/03/26 02:43:37;;;;;;;3.53;1.42;;;23.80;63.80;;;;;;4143246;28;20431;-54
2021/03/26 02:45:47;;;;;;;3.95;1.85;;;23.80;63.80;;;;;;4137839;28;20037;-57
2021/03/26 02:47:55;;;;;;;4.60;1.77;;;23.90;64.00;;;;;;4146742;28;20181;-54
2021/03/26 02:50:14;;;;;;;3.20;1.77;;;23.90;64.10;;;;;;4144546;28;20040;-53
2021/03/26 02:52:28;;;;;;;3.80;1.70;;;23.90;64.00;;;;;;4144369;28;20242;-56
2021/03/26 02:54:46;;;;;;;9.55;1.90;;;24.00;64.00;;;;;;4149374;28;20083;-47
2021/03/26 02:56:54;;;;;;;4.00;1.52;;;24.00;63.50;;;;;;4141576;28;20049;-56
2021/03/26 02:59:06;;;;;;;3.58;1.50;;;24.00;63.40;;;;;;4147184;28;20628;-55
2021/03/26 03:01:33;;;;;;;3.40;1.63;;;24.00;63.50;;;;;;4148000;28;20041;-55
2021/03/26 03:03:38;;;;;;;3.80;1.67;;;24.10;63.70;;;;;;4124139;28;20083;-56
2021/03/26 03:05:46;;;;;;;3.45;1.42;;;24.10;63.70;;;;;;4113731;28;20053;-53
2021/03/26 03:07:59;;;;;;;6.18;1.65;;;24.10;63.70;;;;;;4131371;28;20045;-52
2021/03/26 03:10:39;;;;;;;4.55;1.50;;;24.20;64.40;;;;;;4129378;28;20044;-56
2021/03/26 03:12:43;;;;;;;2.85;1.58;;;24.20;63.80;;;;;;4125905;28;20050;-57
2021/03/26 03:14:57;;;;;;;3.10;1.55;;;24.20;64.00;;;;;;4125264;28;20034;-59
2021/03/26 03:17:22;;;;;;;3.35;1.42;;;24.20;63.90;;;;;;4130216;28;20340;-59
2021/03/26 03:19:50;;;;;;;3.55;1.80;;;24.20;63.80;;;;;;4132521;28;20131;-56
2021/03/26 03:22:01;;;;;;;3.53;1.40;;;24.30;63.90;;;;;;4105494;28;20030;-55
2021/03/26 03:24:23;;;;;;;3.05;1.55;;;24.30;63.90;;;;;;4132108;28;20050;-57
2021/03/26 03:26:39;;;;;;;4.10;1.83;;;24.40;64.30;;;;;;4128371;28;20033;-58
2021/03/26 03:29:22;;;;;;;3.17;1.48;;;24.40;64.20;;;;;;4131954;28;20598;-56
2021/03/26 03:31:46;;;;;;;2.70;1.42;;;24.40;64.20;;;;;;4076013;28;20087;-55
2021/03/26 03:34:19;;;;;;;3.13;1.67;;;24.40;64.50;;;;;;4130936;28;20042;-56
2021/03/26 03:36:32;;;;;;;3.28;1.75;;;24.50;64.60;;;;;;4131151;28;20042;-57
2021/03/26 03:39:00;;;;;;;4.28;1.58;;;24.60;64.60;;;;;;4129614;28;20055;-55
2021/03/26 03:41:13;;;;;;;2.92;1.70;;;24.60;64.70;;;;;;4134469;28;20483;-59
2021/03/26 03:43:28;;;;;;;2.58;1.63;;;24.60;64.60;;;;;;4128906;28;20046;-53
2021/03/26 03:46:00;;;;;;;2.88;1.38;;;24.60;64.60;;;;;;4124784;28;20396;-55
2021/03/26 03:48:05;;;;;;;5.07;1.60;;;24.70;64.10;;;;;;4127742;28;20050;-55
2021/03/26 03:50:24;;;;;;;2.60;1.50;;;24.70;64.20;;;;;;4125488;28;21118;-54
2021/03/26 03:53:03;;;;;;;3.28;1.52;;;24.80;64.30;;;;;;4131719;28;20057;-55
2021/03/26 03:55:12;;;;;;;5.63;1.50;;;24.80;64.30;;;;;;4121611;28;20124;-60
2021/03/26 03:57:35;;;;;;;4.15;1.63;;;24.90;63.80;;;;;;4128507;28;20053;-53
2021/03/26 03:59:56;;;;;;;2.55;1.35;;;24.90;64.00;;;;;;4126221;28;20590;-58
2021/03/26 04:02:34;;;;;;;3.30;1.65;;;25.00;63.90;;;;;;4138642;28;20056;-60
2021/03/26 04:04:52;;;;;;;4.38;1.50;;;25.10;63.90;;;;;;4148030;28;20321;-59
2021/03/26 04:07:01;;;;;;;3.20;1.63;;;25.10;63.80;;;;;;4141886;28;20037;-58
2021/03/26 04:09:12;;;;;;;2.45;1.40;;;25.20;63.70;;;;;;4145944;28;20112;-57
2021/03/26 04:11:54;;;;;;;5.35;1.75;;;25.20;63.60;;;;;;4149640;28;20134;-50
2021/03/26 04:14:51;;;;;;;3.10;1.38;;;25.30;63.60;;;;;;4083305;28;20543;-55
2021/03/26 04:17:00;;;;;;;2.78;1.30;;;25.30;63.70;;;;;;4123424;28;20034;-55
2021/03/26 04:19:21;;;;;;;5.22;1.13;;;25.30;63.70;;;;;;4152273;28;20048;-60
2021/03/26 04:21:27;;;;;;;5.50;1.52;;;25.30;63.40;;;;;;4152088;28;20371;-58
2021/03/26 04:23:54;;;;;;;3.38;1.55;;;25.30;63.30;;;;;;4143245;28;20052;-58
2021/03/26 04:26:20;;;;;;;3.28;1.42;;;25.30;63.00;;;;;;4147868;28;20049;-60
2021/03/26 04:28:32;;;;;;;4.85;1.65;;;25.40;62.90;;;;;;4146417;28;20377;-56
2021/03/26 04:30:47;;;;;;;3.53;1.42;;;25.40;62.50;;;;;;4141945;28;20427;-57
2021/03/26 04:32:50;;;;;;;4.70;1.45;;;25.40;62.90;;;;;;4147098;28;20034;-59
2021/03/26 04:34:53;;;;;;;;;;;25.50;63.10;;;;;;4147318;28;20345;-55
2021/03/26 04:37:11;;;;;;;3.80;1.38;;;25.50;63.00;;;;;;4141370;28;20377;-55
2021/03/26 04:39:21;;;;;;;3.10;1.50;;;25.60;63.10;;;;;;4145714;28;20638;-58
2021/03/26 04:41:35;;;;;;;4.18;1.40;;;25.60;62.90;;;;;;4140126;28;20083;-57
2021/03/26 04:43:53;;;;;;;3.28;1.30;;;25.60;62.60;;;;;;4145854;28;20037;-56
2021/03/26 04:46:21;;;;;;;3.22;1.40;;;25.70;62.60;;;;;;4146386;28;20139;-56
2021/03/26 04:48:58;;;;;;;2.92;1.30;;;25.70;62.50;;;;;;4137390;28;20448;-55
2021/03/26 04:51:32;;;;;;;4.65;1.25;;;25.80;62.40;;;;;;4138803;28;20584;-56
2021/03/26 04:53:53;;;;;;;2.75;1.45;;;25.90;62.40;;;;;;4142488;28;20048;-56
2021/03/26 04:55:59;;;;;;;3.28;1.40;;;25.90;62.40;;;;;;4140629;28;20352;-54
2021/03/26 04:58:11;;;;;;;3.55;1.40;;;26.00;62.30;;;;;;4146342;28;20252;-56
2021/03/26 05:00:22;;;;;;;2.42;1.08;;;26.00;62.20;;;;;;4146240;28;20029;-53
2021/03/26 05:02:25;;;;;;;2.72;1.40;;;26.00;62.10;;;;;;4145759;28;20080;-55
2021/03/26 05:04:33;;;;;;;2.60;1.30;;;26.10;62.00;;;;;;4144504;28;20048;-58
2021/03/26 05:06:43;;;;;;;4.70;1.30;;;26.10;61.70;;;;;;4142481;28;20445;-56
2021/03/26 05:08:54;;;;;;;4.22;1.40;;;26.10;61.70;;;;;;4140755;28;20380;-54
2021/03/26 05:10:59;;;;;;;2.05;0.90;;;26.20;61.70;;;;;;4137891;28;20080;-59
2021/03/26 05:13:24;;;;;;;2.78;1.50;;;26.20;61.70;;;;;;4145691;28;20045;-55
2021/03/26 05:15:28;;;;;;;3.25;1.27;;;26.30;61.50;;;;;;4142581;28;20361;-57
2021/03/26 05:17:30;;;;;;;2.97;1.25;;;26.30;61.40;;;;;;4143442;28;20034;-58
2021/03/26 05:20:26;;;;;;;3.60;1.05;;;26.40;61.50;;;;;;4145012;28;20124;-58
2021/03/26 05:22:48;;;;;;;1.83;1.10;;;26.40;61.30;;;;;;4076985;28;20055;-55
2021/03/26 05:25:01;;;;;;;2.90;1.20;;;26.50;61.40;;;;;;4126251;28;20034;-54
2021/03/26 05:27:08;;;;;;;2.13;1.00;;;26.50;61.20;;;;;;4144747;28;20045;-57
2021/03/26 05:29:10;;;;;;;3.63;1.23;;;26.60;61.70;;;;;;4138925;28;20032;-57
2021/03/26 05:31:23;;;;;;;1.37;0.97;;;26.70;61.20;;;;;;4143195;28;20099;-53
2021/03/26 05:33:51;;;;;;;;;;;26.70;61.10;;;;;;4143341;28;20444;-54
2021/03/26 05:35:56;;;;;;;2.08;0.98;;;26.80;61.30;;;;;;4135755;28;19994;-53
2021/03/26 05:37:58;;;;;;;5.43;1.23;;;26.80;60.90;;;;;;4144400;28;20037;-57
2021/03/26 05:40:26;;;;;;;2.40;1.30;;;26.90;61.00;;;;;;4144720;28;20376;-57
2021/03/26 05:42:56;;;;;;;4.95;1.23;;;26.90;61.00;;;;;;4144476;28;20431;-51
2021/03/26 05:45:10;;;;;;;2.33;1.00;;;27.00;60.90;;;;;;4143443;28;20173;-59
2021/03/26 05:47:44;;;;;;;3.50;1.27;;;27.00;60.90;;;;;;4147131;28;20467;-50
2021/03/26 05:50:16;;;;;;;2.38;1.33;;;27.10;60.50;;;;;;4131831;28;20050;-57
2021/03/26 05:52:34;;;;;;;1.88;1.00;;;27.10;60.70;;;;;;4144462;28;20033;-58
2021/03/26 05:54:48;;;;;;;4.68;1.13;;;27.10;60.80;;;;;;4142391;28;20037;-52
2021/03/26 05:57:03;;;;;;;2.28;1.05;;;27.20;60.30;;;;;;4144845;28;20029;-54
2021/03/26 05:59:29;;;;;;;2.45;1.15;;;27.20;60.40;;;;;;4141962;28;20129;-54
2021/03/26 06:01:49;;;;;;;2.97;1.15;;;27.30;60.30;;;;;;4144948;28;20038;-50
2021/03/26 06:03:57;;;;;;;2.95;1.10;;;27.30;59.90;;;;;;4138877;28;20423;-59
2021/03/26 06:06:48;;;;;;;3.70;1.38;;;27.30;59.90;;;;;;4137724;28;20266;-56
2021/03/26 06:09:40;;;;;;;3.70;1.40;;;27.30;59.60;;;;;;4142571;28;20131;-50
2021/03/26 06:12:11;;;;;;;2.70;1.50;;;27.40;59.80;;;;;;4116961;28;22603;-53
2021/03/26 06:14:51;;;;;;;5.88;1.45;;;27.40;59.90;;;;;;4142184;28;20578;-56
2021/03/26 06:17:14;;;;;;;5.90;1.65;;;27.50;59.80;;;;;;4144389;28;20128;-52
2021/03/26 06:19:28;;;;;;;;;;;27.50;59.60;;;;;;4146704;28;20403;-55
2021/03/26 06:22:07;;;;;;;3.53;1.67;;;27.60;59.50;;;;;;4145936;28;20049;-52
2021/03/26 06:24:50;;;;;;;4.22;1.20;;;27.60;59.20;;;;;;4145351;28;20290;-52
2021/03/26 06:27:19;;;;;;;2.50;1.10;;;27.70;59.20;;;;;;4120215;28;20144;-53
2021/03/26 06:29:57;;;;;;;5.50;1.70;;;27.80;59.20;;;;;;4141725;28;20025;-56
2021/03/26 06:32:27;;;;;;;6.28;1.45;;;27.80;58.90;;;;;;4146390;28;20029;-52
2021/03/26 06:35:13;;;;;;;2.15;1.15;;;27.80;58.90;;;;;;4142376;28;20034;-53
2021/03/26 06:37:18;;;;;;;3.83;1.58;;;27.80;59.00;;;;;;4121200;28;20049;-55
2021/03/26 06:39:49;;;;;;;3.28;1.33;;;27.80;59.00;;;;;;4141478;28;20582;-58
2021/03/26 06:42:18;;;;;;;4.03;1.42;;;27.80;59.30;;;;;;4143684;28;20037;-53
2021/03/26 06:44:50;;;;;;;5.63;1.50;;;27.80;59.10;;;;;;4146132;28;20041;-53
2021/03/26 06:47:17;;;;;;;4.13;1.15;;;27.70;59.20;;;;;;4149359;28;20121;-56
2021/03/26 06:49:48;;;;;;;3.13;1.73;;;27.70;59.40;;;;;;4140430;28;20038;-58
2021/03/26 06:52:13;;;;;;;4.63;1.70;;;27.70;59.60;;;;;;4148068;28;20029;-52
2021/03/26 06:54:46;;;;;;;3.60;1.27;;;27.70;59.60;;;;;;4132788;28;20030;-56
2021/03/26 06:57:22;;;;;;;12.55;1.50;;;27.70;59.60;;;;;;4149727;28;20033;-48
2021/03/26 06:59:36;;;;;;;5.22;1.42;;;27.70;59.60;;;;;;4144517;28;20044;-49
2021/03/26 07:02:10;;;;;;;4.00;1.60;;;27.70;59.50;;;;;;4150027;28;20060;-55
2021/03/26 07:04:29;;;;;;;;;;;27.80;59.60;;;;;;4112775;28;20049;-52
2021/03/26 07:07:16;;;;;;;6.40;1.58;;;27.80;59.50;;;;;;4146158;28;20358;-54
2021/03/26 07:09:33;;;;;;;5.45;1.67;;;27.80;59.40;;;;;;4144312;28;20428;-53
2021/03/26 07:11:44;;;;;;;3.38;1.35;;;27.80;58.60;;;;;;4149760;28;20061;-55
2021/03/26 07:14:33;;;;;;;3.47;1.50;;;27.80;58.00;;;;;;4144686;28;20037;-55
2021/03/26 07:16:38;;;;;;;3.55;1.70;;;27.70;57.90;;;;;;4072660;28;20130;-54
2021/03/26 07:18:53;;;;;;;4.28;1.40;;;27.60;57.90;;;;;;4139734;28;20384;-56
2021/03/26 07:21:28;;;;;;;7.07;1.60;;;27.50;57.80;;;;;;4141977;28;20103;-58
2021/03/26 07:23:43;;;;;;;4.53;1.40;;;27.50;57.60;;;;;;4140238;28;20037;-52
2021/03/26 07:26:03;;;;;;;3.30;1.40;;;27.50;57.50;;;;;;4145960;28;20026;-51
2021/03/26 07:28:34;;;;;;;3.00;1.38;;;27.40;57.70;;;;;;4147882;28;20041;-50
2021/03/26 07:30:36;;;;;;;2.67;1.10;;;27.50;58.40;;;;;;4144412;28;21288;-54
2021/03/26 07:33:06;;;;;;;2.97;0.90;;;27.50;58.60;;;;;;4136360;28;20030;-56
2021/03/26 07:35:33;;;;;;;2.75;0.88;;;27.50;58.90;;;;;;4144994;28;20052;-55
2021/03/26 07:38:00;;;;;;;3.25;1.20;;;27.50;59.00;;;;;;4145297;28;20075;-56
2021/03/26 07:40:20;;;;;;;2.67;1.10;;;27.50;59.20;;;;;;4139340;28;20056;-54
2021/03/26 07:43:06;;;;;;;7.03;1.15;;;27.50;59.90;;;;;;4142226;28;20119;-48
2021/03/26 07:45:17;;;;;;;2.28;0.93;;;27.50;59.70;;;;;;4140563;28;20444;-55
2021/03/26 07:47:28;;;;;;;3.25;1.20;;;27.50;59.60;;;;;;4143425;28;20026;-57
2021/03/26 07:49:38;;;;;;;3.42;1.10;;;27.50;59.80;;;;;;4141042;28;20030;-54
2021/03/26 07:51:55;;;;;;;2.25;1.10;;;27.50;60.00;;;;;;4139570;28;20034;-56
2021/03/26 07:54:32;;;;;;;4.90;0.95;;;27.50;60.00;;;;;;4142457;28;20641;-57
2021/03/26 07:56:37;;;;;;;2.25;1.02;;;27.50;60.10;;;;;;4143336;28;20301;-56
2021/03/26 07:58:51;;;;;;;1.38;0.73;;;27.50;60.20;;;;;;4144149;28;20041;-57
2021/03/26 08:01:13;;;;;;;1.95;0.88;;;27.50;60.20;;;;;;4144982;28;20218;-59
2021/03/26 08:03:41;;;;;;;1.75;0.73;;;27.50;60.00;;;;;;4144948;28;20085;-57
2021/03/26 08:05:52;;;;;;;1.58;0.80;;;27.50;60.90;;;;;;4135952;28;20034;-54
2021/03/26 08:08:12;;;;;;;2.65;1.00;;;27.50;61.00;;;;;;4143147;28;20605;-55
2021/03/26 08:10:38;;;;;;;4.68;0.95;;;27.50;60.90;;;;;;4142098;28;20052;-54
2021/03/26 08:13:14;;;;;;;2.25;1.00;;;27.50;60.90;;;;;;4143084;28;20041;-56
2021/03/26 08:15:36;;;;;;;3.70;0.88;;;27.50;61.00;;;;;;4143772;28;20077;-56
2021/03/26 08:18:05;;;;;;;4.07;0.88;;;27.50;61.20;;;;;;4134073;28;20064;-56
2021/03/26 08:20:25;;;;;;;1.35;0.85;;;27.40;61.10;;;;;;4139655;28;20730;-55
2021/03/26 08:22:45;;;;;;;3.35;0.88;;;27.50;61.30;;;;;;4138804;28;20159;-51
2021/03/26 08:25:28;;;;;;;1.90;1.00;;;27.40;61.20;;;;;;4139304;28;22073;-53
2021/03/26 08:28:08;;;;;;;4.00;1.08;;;27.40;61.20;;;;;;4145289;28;20453;-54
2021/03/26 08:30:38;;;;;;;3.47;1.33;;;27.40;61.20;;;;;;4128172;28;20537;-57
2021/03/26 08:33:14;;;;;;;2.25;0.90;;;27.40;61.40;;;;;;4140472;28;20247;-52
2021/03/26 08:35:36;;;;;;;2.90;1.20;;;27.40;61.40;;;;;;4106337;28;20030;-56
2021/03/26 08:37:56;;;;;;;3.85;1.27;;;27.40;61.30;;;;;;4133209;28;20052;-57
2021/03/26 08:40:01;;;;;;;3.58;1.40;;;27.40;61.30;;;;;;4138628;28;20046;-59
2021/03/26 08:42:12;;;;;;;3.50;1.38;;;27.40;61.40;;;;;;4139882;28;20033;-58
2021/03/26 08:44:21;;;;;;;2.85;1.20;;;27.40;60.90;;;;;;4142545;28;20574;-58
2021/03/26 08:46:38;;;;;;;3.03;1.50;;;27.30;60.90;;;;;;4137809;28;20535;-56
2021/03/26 08:49:01;;;;;;;3.08;1.50;;;27.30;61.00;;;;;;4141817;28;20068;-57
2021/03/26 08:51:45;;;;;;;5.35;1.88;;;27.20;61.20;;;;;;4139965;28;20458;-65
2021/03/26 08:54:05;;;;;;;10.07;1.58;;;27.20;60.90;;;;;;4140460;28;20072;-61
2021/03/26 08:56:37;;;;;;;12.98;2.42;;;27.10;60.90;;;;;;4142694;28;20135;-64
2021/03/26 08:58:57;;;;;;;39.63;3.85;;;27.10;61.30;;;;;;4143621;28;20045;-64
2021/03/26 09:01:36;;;;;;;35.47;3.70;;;27.10;61.70;;;;;;4139915;28;20199;-61
2021/03/26 09:03:52;;;;;;;22.85;3.97;;;27.00;62.20;;;;;;4142162;28;20049;-62
2021/03/26 09:06:07;;;;;;;17.48;2.97;;;27.00;62.70;;;;;;4135163;28;20463;-62
2021/03/26 09:08:28;;;;;;;10.10;2.35;;;27.00;63.00;;;;;;4149743;28;20021;-60
2021/03/26 09:11:02;;;;;;;16.13;2.75;;;27.00;63.20;;;;;;4148469;28;20042;-62
2021/03/26 09:13:22;;;;;;;;;;;27.00;63.30;;;;;;4133322;28;20262;-62
2021/03/26 09:15:51;;;;;;;16.40;2.17;;;27.00;63.10;;;;;;4145718;28;20004;-62
2021/03/26 09:18:15;;;;;;;9.20;1.45;;;27.00;63.20;;;;;;4141823;28;20037;-61
2021/03/26 09:20:27;;;;;;;9.95;2.05;;;27.00;63.20;;;;;;4140590;28;20022;-60
2021/03/26 09:23:01;;;;;;;9.23;2.22;;;27.10;63.50;;;;;;4141938;28;20049;-61
2021/03/26 09:25:12;;;;;;;5.72;1.50;;;27.00;63.40;;;;;;4136481;28;20045;-61
2021/03/26 09:27:25;;;;;;;7.78;1.48;;;27.00;63.40;;;;;;4134758;28;20037;-61
2021/03/26 09:29:52;;;;;;;4.85;1.55;;;27.00;63.50;;;;;;4141237;28;20033;-61
2021/03/26 09:32:19;;;;;;;8.82;2.17;;;27.10;63.60;;;;;;4146373;28;20447;-62
2021/03/26 09:34:23;;;;;;;6.30;1.63;;;27.00;63.90;;;;;;4127697;28;20156;-62
2021/03/26 09:36:29;;;;;;;3.95;1.33;;;27.10;63.90;;;;;;4140686;28;20040;-63
2021/03/26 09:38:43;;;;;;;3.42;1.65;;;27.10;63.90;;;;;;4139387;28;20100;-63
2021/03/26 09:41:08;;;;;;;2.90;1.33;;;27.00;63.80;;;;;;4142437;28;20029;-62
2021/03/26 09:43:24;;;;;;;6.25;1.40;;;27.00;63.60;;;;;;4140250;28;20077;-62
2021/03/26 09:45:51;;;;;;;3.58;1.30;;;27.00;63.60;;;;;;4139129;28;20083;-62
2021/03/26 09:48:33;;;;;;;4.82;1.05;;;27.00;63.60;;;;;;4145392;28;20047;-63
2021/03/26 09:51:03;;;;;;;4.43;1.33;;;27.00;63.80;;;;;;4141707;28;20033;-65
2021/03/26 09:53:14;;;;;;;3.08;1.40;;;27.00;63.80;;;;;;4149527;28;20402;-62
2021/03/26 09:55:32;;;;;;;6.25;1.92;;;27.00;63.90;;;;;;4143940;28;20089;-63
2021/03/26 09:58:12;;;;;;;3.38;1.67;;;27.00;63.80;;;;;;4134000;28;20037;-63
2021/03/26 10:00:41;;;;;;;3.90;1.27;;;27.00;63.70;;;;;;4080696;29;20115;-64
2021/03/26 10:03:01;;;;;;;3.72;1.48;;;27.00;63.60;;;;;;4123661;28;24099;-61
2021/03/26 10:05:20;;;;;;;4.70;1.23;;;27.00;63.60;;;;;;4145250;28;20022;-62
2021/03/26 10:07:29;;;;;;;5.88;1.50;;;26.90;63.50;;;;;;4135538;28;20041;-63
2021/03/26 10:12:02;;;;;;;3.47;1.67;;;27.00;63.50;;;;;;4144519;28;20107;-63
2021/03/26 10:14:18;;;;;;;5.38;1.38;;;26.90;63.50;;;;;;4135916;28;20018;-63
2021/03/26 10:16:36;;;;;;;3.92;1.73;;;26.90;63.60;;;;;;4144250;28;20060;-61
2021/03/26 10:18:46;;;;;;;3.05;1.70;;;26.90;63.40;;;;;;4140707;28;20362;-62
2021/03/26 10:21:17;;;;;;;4.38;1.58;;;26.90;62.90;;;;;;4140765;28;20502;-61
2021/03/26 10:23:45;;;;;;;4.47;1.77;;;26.90;62.90;;;;;;4145735;28;20126;-60
2021/03/26 10:25:52;;;;;;;5.00;1.83;;;26.90;63.60;;;;;;4144746;28;20038;-62
2021/03/26 10:28:04;;;;;;;4.88;1.80;;;26.90;63.00;;;;;;4137415;28;20037;-62
2021/03/26 10:30:26;;;;;;;2.58;1.40;;;26.90;63.20;;;;;;4142047;28;20703;-62
2021/03/26 10:32:31;;;;;;;3.30;1.50;;;26.90;63.20;;;;;;4141156;28;20042;-60
2021/03/26 10:34:36;;;;;;;5.32;1.83;;;26.90;63.60;;;;;;4147157;28;20144;-66
2021/03/26 10:36:44;;;;;;;3.10;1.70;;;26.80;63.20;;;;;;4142412;28;20042;-65
2021/03/26 10:39:17;;;;;;;4.20;1.60;;;26.80;62.90;;;;;;4146062;28;20037;-62
2021/03/26 10:41:59;;;;;;;2.88;1.60;;;26.80;62.90;;;;;;4152447;28;20477;-60
2021/03/26 10:44:24;;;;;;;5.05;1.67;;;26.80;63.10;;;;;;4120083;28;20140;-60
2021/03/26 10:46:36;;;;;;;3.63;1.55;;;26.80;63.10;;;;;;4140785;28;20029;-58
2021/03/26 10:49:14;;;;;;;6.82;1.50;;;26.80;63.10;;;;;;4148824;28;20552;-61
2021/03/26 10:51:34;;;;;;;3.67;1.90;;;26.80;63.10;;;;;;4137516;28;20476;-63
2021/03/26 10:53:44;;;;;;;6.22;2.20;;;26.80;63.00;;;;;;4146129;28;20037;-64
2021/03/26 10:56:23;;;;;;;10.73;1.92;;;26.70;62.80;;;;;;4146665;28;20491;-62
2021/03/26 10:58:33;;;;;;;10.02;2.47;;;26.70;62.70;;;;;;4144873;28;20475;-63
2021/03/26 11:00:39;;;;;;;7.20;2.20;;;26.70;62.70;;;;;;4145544;28;20061;-63
2021/03/26 11:02:53;;;;;;;7.60;1.80;;;26.70;62.90;;;;;;4142496;28;20137;-66
2021/03/26 11:05:13;;;;;;;6.93;1.77;;;26.70;62.70;;;;;;4148242;28;20041;-65
2021/03/26 11:07:20;;;;;;;3.28;1.52;;;26.70;62.70;;;;;;4148227;28;20038;-62
2021/03/26 11:09:45;;;;;;;7.45;1.63;;;26.70;62.70;;;;;;4149447;28;20045;-61
2021/03/26 11:12:01;;;;;;;5.57;1.38;;;26.70;62.80;;;;;;4147335;28;20475;-64
2021/03/26 11:14:17;;;;;;;5.55;1.88;;;26.70;62.90;;;;;;4147998;28;20032;-61
2021/03/26 11:16:28;;;;;;;7.65;1.75;;;26.60;63.00;;;;;;4147440;28;20472;-61
2021/03/26 11:18:49;;;;;;;5.07;1.80;;;26.60;62.90;;;;;;4149117;28;20044;-62
2021/03/26 11:21:07;;;;;;;4.18;1.60;;;26.60;62.90;;;;;;4145107;28;20045;-61
2021/03/26 11:23:14;;;;;;;12.43;1.80;;;26.60;63.00;;;;;;4146002;28;20057;-64
2021/03/26 11:25:40;;;;;;;5.88;2.28;;;26.60;62.90;;;;;;4148627;28;20040;-62
2021/03/26 11:27:49;;;;;;;4.32;1.70;;;26.60;62.80;;;;;;4146869;28;20045;-65
2021/03/26 11:30:22;;;;;;;9.02;1.65;;;26.60;62.70;;;;;;4140367;28;20411;-65
2021/03/26 11:32:27;;;;;;;5.32;1.70;;;26.50;62.70;;;;;;4143559;28;20509;-63
2021/03/26 11:35:09;;;;;;;5.35;1.50;;;26.50;62.70;;;;;;4146321;28;20049;-63
2021/03/26 11:37:38;;;;;;;6.60;2.03;;;26.50;62.70;;;;;;4145616;28;20084;-61
2021/03/26 11:39:50;;;;;;;4.80;1.42;;;26.50;62.70;;;;;;4142252;28;20037;-62
2021/03/26 11:42:21;;;;;;;2.88;1.70;;;26.50;62.70;;;;;;4148959;28;20135;-62
2021/03/26 11:44:30;;;;;;;3.45;2.00;;;26.50;62.70;;;;;;4147007;28;20046;-61
2021/03/26 11:46:41;;;;;;;3.22;1.90;;;26.40;62.70;;;;;;4146481;28;20477;-66
2021/03/26 11:49:12;;;;;;;7.22;1.88;;;26.40;62.80;;;;;;4145988;28;20133;-60
2021/03/26 11:51:39;;;;;;;3.97;1.73;;;26.40;63.00;;;;;;4141015;28;20120;-61
2021/03/26 11:53:47;;;;;;;3.38;1.85;;;26.40;63.20;;;;;;4142750;28;20538;-59
2021/03/26 11:56:21;;;;;;;6.07;1.92;;;26.40;63.00;;;;;;4144671;28;20349;-59